Flight Track Log - Related Links

Times and Time Zones

All times are in EDT time to prevent confusion due to time zone crossing. See the FLG4262 flight status page for this flight to view local times or setup timezone preferences in your user account.

Time Position Orientation Groundspeed Altitude Reporting Facility
EDT Latitude Longitude Course Direction KTS MPH feet Rate Location/Type
Mon 05:51:26 PM 42.2714 -76.1350 289° West 213 245 6,600  Level Cleveland Center
Mon 05:52:28 PM 42.2975 -76.2269 291° West 252 290 9,300 2,371 Climbing Cleveland Center
Mon 05:53:30 PM 42.3239 -76.3236 290° West 271 312 11,500 2,274 Climbing Cleveland Center
Mon 05:54:32 PM 42.3597 -76.4533 291° West 317 365 14,000 2,032 Climbing Cleveland Center
Mon 05:55:00 PM 42.2309 -76.7462 289° West  Level Estimated
Mon 05:55:34 PM 42.3908 -76.5694 290° West 327 376 15,700  Level Cleveland Center
Mon 05:56:37 PM 42.4250 -76.6950 290° West 352 405 17,200 1,296 Climbing Cleveland Center
Mon 05:57:39 PM 42.4586 -76.8214 290° West 357 411 18,400 1,258 Climbing Cleveland Center
Mon 05:58:41 PM 42.5006 -76.9792 290° West 370 426 19,800 1,161 Climbing Cleveland Center
Mon 05:59:43 PM 42.5358 -77.1139 290° West 379 436 20,800 968 Climbing Cleveland Center
Mon 06:00:45 PM 42.5728 -77.2525 290° West 389 448 21,800 968 Climbing Cleveland Center
Mon 06:01:47 PM 42.6083 -77.3897 289° West 388 447 22,800 1,016 Climbing Cleveland Center
Mon 06:02:49 PM 42.6175 -77.5517 274° West 398 458 23,900 1,016 Climbing Cleveland Center
Mon 06:03:51 PM 42.6233 -77.6994 273° West 396 456 24,900 968 Climbing Cleveland Center
Mon 06:04:53 PM 42.6297 -77.8508 273° West 396 456 25,900 532 Climbing Cleveland Center
Mon 06:05:55 PM 42.6358 -78.0019 273° West 399 459 26,000 48 Climbing Cleveland Center
Mon 06:06:57 PM 42.6422 -78.1933 273° West 416 479 26,000  Level Cleveland Center
Mon 06:07:59 PM 42.6481 -78.3578 273° West 429 494 26,000  Level Cleveland Center
Mon 06:09:01 PM 42.6542 -78.5228 273° West 434 499 26,000  Level Cleveland Center
Mon 06:10:03 PM 42.6594 -78.6903 273° West 443 510 26,000  Level Cleveland Center
Mon 06:11:06 PM 42.6639 -78.8561 272° West 441 507 26,000  Level Cleveland Center
Mon 06:12:08 PM 42.6692 -79.0206 273° West 441 507 26,000  Level Cleveland Center
Mon 06:13:10 PM 42.6744 -79.2178 272° West 437 503 26,000  Level Cleveland Center
Mon 06:14:12 PM 42.6794 -79.3839 272° West 440 506 26,000  Level Cleveland Center
Mon 06:15:14 PM 42.6833 -79.5486 272° West 440 506 26,000  Level Cleveland Center
Mon 06:16:16 PM 42.6869 -79.7144 272° West 440 506 26,000  Level Cleveland Center
Mon 06:17:18 PM 42.6906 -79.8808 272° West 441 507 26,000  Level Cleveland Center
Mon 06:18:20 PM 42.6919 -80.0603 271° West 441 507 26,000  Level Cleveland Center
Mon 06:19:22 PM 42.6947 -80.2283 271° West 442 509 26,000  Level Cleveland Center
Mon 06:20:24 PM 42.6981 -80.3961 272° West 443 510 26,000  Level Cleveland Center
Mon 06:21:26 PM 42.7014 -80.5908 271° West 440 506 26,000 -97 Level Cleveland Center
Mon 06:22:28 PM 42.7039 -80.7631 271° West 451 519 25,800 -774 Descending Cleveland Center
Mon 06:23:30 PM 42.7011 -80.9322 269° West 448 516 24,400 -871 Descending Cleveland Center
Mon 06:24:32 PM 42.6814 -81.0997 261° West 447 514 24,000 -192 Descending Cleveland Center
Mon 06:25:35 PM 42.6625 -81.2678 261° West 447 514 24,000 -528 Level Cleveland Center
Mon 06:26:37 PM 42.6428 -81.4367 261° West 450 518 22,900 -1,403 Descending Cleveland Center
Mon 06:27:39 PM 42.6233 -81.6031 261° West 446 513 21,100 -1,839 Descending Cleveland Center
Mon 06:28:41 PM 42.6025 -81.7833 261° West 416 479 19,100 -1,548 Descending Cleveland Center
Mon 06:29:43 PM 42.5844 -81.9328 261° West 413 475 17,900 -1,403 Descending Cleveland Center
Mon 06:30:45 PM 42.5658 -82.0861 261° West 413 475 16,200 -1,826 Descending Cleveland Center
Mon 06:31:15 PM 42.5564 -82.1764 262° West 405 466 15,100 -1,645 Descending Cleveland Center
Mon 06:31:47 PM 42.5478 -82.2314 258° West 400 460 14,500 -1,644 Descending Cleveland Center
Mon 06:32:28 PM 42.5342 -82.3489 261° West 379 436 13,100 -1,645 Descending Cleveland Center
Mon 06:32:49 PM 42.5294 -82.3714 254° West 385 443 12,800 -971 Descending Cleveland Center
Mon 06:33:36 PM 42.5158 -82.4939 261° West 364 419 12,000 -774 Descending Cleveland Center
Mon 06:33:51 PM 42.5094 -82.5325 257° West 367 422 12,000 109 Level Cleveland Center
Mon 06:34:31 PM 42.4847 -82.6086 246° West 352 405 12,100  Climbing Cleveland Center
Mon 06:34:53 PM 42.4681 -82.6544 244° Southwest 359 413 12,000 -98 Descending Cleveland Center
Mon 06:35:32 PM 42.4394 -82.7414 246° West 363 418 12,000  Level Cleveland Center
Mon 06:35:55 PM 42.4247 -82.7772 241° Southwest 361 415 12,000  Level Cleveland Center
Mon 06:36:33 PM 42.3950 -82.8653 245° Southwest 366 421 12,000  Level Cleveland Center
Mon 06:36:57 PM 42.3800 -82.9000 240° Southwest 364 419 12,000  Level Cleveland Center
Mon 06:37:34 PM 42.3500 -82.9892 246° West 368 423 12,000  Level Cleveland Center
Mon 06:37:59 PM 42.3353 -83.0250 241° Southwest 368 423 12,000  Level Cleveland Center
Mon 06:38:35 PM 42.3056 -83.1103 245° Southwest 339 390 12,000  Level Cleveland Center
Mon 06:39:02 PM 42.2942 -83.1375 241° Southwest 340 391 12,000  Level Cleveland Center
Mon 06:39:30 PM 42.2619 -83.1861 228° Southwest 259 298 12,000 -290 Level Cleveland Center
Mon 06:40:04 PM 42.2267 -83.2183 214° Southwest 266 306 11,700 -985 Descending Cleveland Center
Mon 06:40:37 PM 42.1922 -83.2497 214° Southwest 269 310 10,900 -1,065 Descending Cleveland Center
Mon 06:41:06 PM 42.1717 -83.2633 206° Southwest 264 304 10,600 -985 Descending Cleveland Center
Mon 06:41:44 PM 42.1278 -83.2942 208° Southwest 230 265 9,800 -1,161 Descending Cleveland Center
Mon 06:42:08 PM 42.1031 -83.3058 199° South 232 267 9,400 -982 Descending Cleveland Center
Mon 06:42:39 PM 42.0750 -83.3261 208° Southwest 220 253 8,900 -968 Descending Cleveland Center
Mon 06:43:10 PM 42.0456 -83.3394 199° South 224 258 8,400 -1,180 Descending Cleveland Center
Mon 06:43:40 PM 42.0161 -83.3572 204° Southwest 224 258 7,700 -1,548 Descending Cleveland Center
Mon 06:44:12 PM 41.9889 -83.3722 202° Southwest 221 254 6,800 -1,869 Descending Cleveland Center
Mon 06:44:41 PM 41.9631 -83.3919 210° Southwest 218 251 5,800 -1,839 Descending Cleveland Center
Mon 06:45:14 PM 41.9583 -83.4261 259° West 221 254 4,900 -1,672 Descending Cleveland Center
Mon 06:45:42 PM 41.9806 -83.4617 310° West 192 221 4,100 -1,065 Descending Cleveland Center
Mon 06:46:16 PM 41.9986 -83.4569 11° North 197 227 3,800 -590 Descending Cleveland Center
Mon 06:46:43 PM 42.0336 -83.4553 North 190 219 3,500 -581 Descending Cleveland Center
Mon 06:47:18 PM 42.0603 -83.4489 10° North 189 217 3,200 -492 Descending Cleveland Center
Mon 06:47:44 PM 42.0792 -83.4364 26° Northeast 168 193 3,000 -290 Descending Cleveland Center
Mon 06:48:20 PM 42.1006 -83.4206 29° Northeast 176 203 2,900 -492 Descending Cleveland Center
Mon 06:48:45 PM 42.1211 -83.4086 23° Northeast 158 182 2,500 -871 Descending Cleveland Center
Mon 06:49:22 PM 42.1383 -83.3925 35° Northeast 164 189 2,000 -873 Descending Cleveland Center
Mon 06:49:40 PM 42.1522 -83.3850 22° Northeast 128 147 1,700 -677 Descending Cleveland Center
Mon 06:50:24 PM 42.1689 -83.3697 34° Northeast 144 166 1,300 -689 Descending Cleveland Center
Mon 06:50:41 PM 42.1836 -83.3611 23° Northeast 124 143 1,000 -476 Descending Cleveland Center
Mon 06:51:27 PM 42.2017 -83.3458 32° Northeast 133 153 800 -261 Descending Cleveland Center

Login

Don't have an account? Register now (free) for customized features, flight alerts, and more!